Time;durP1;ratioP1;P1;durP2;ratioP2;P2;SDS_P1;SDS_P2;PMS_P1;PMS_P2;Temp;Humidity;BMP_temperature;BMP_pressure;BME280_temperature;BME280_humidity;BME280_pressure;Samples;Min_cycle;Max_cycle;Signal;HPM_P1;HPM_P2
2020/12/04 00:01:32;;;;;;;26.73;10.77;;;2.10;99.90;;;;;;5005964;28;20065;-66
2020/12/04 00:03:59;;;;;;;31.10;11.40;;;2.10;99.90;;;;;;5006880;28;20104;-66
2020/12/04 00:06:25;;;;;;;25.55;9.90;;;2.00;99.90;;;;;;5006209;28;20108;-66
2020/12/04 00:08:52;;;;;;;23.15;8.98;;;2.10;99.90;;;;;;5000186;28;20099;-66
2020/12/04 00:11:19;;;;;;;22.85;9.95;;;2.00;99.90;;;;;;5006861;28;20050;-66
2020/12/04 00:13:45;;;;;;;25.40;10.65;;;2.00;99.90;;;;;;5009658;28;20046;-66
2020/12/04 00:16:12;;;;;;;25.30;8.40;;;1.90;99.90;;;;;;5009150;28;20050;-66
2020/12/04 00:18:38;;;;;;;24.27;9.18;;;1.90;99.90;;;;;;5005720;28;20045;-66
2020/12/04 00:21:05;;;;;;;24.55;9.40;;;1.90;99.90;;;;;;5007401;28;20514;-66
2020/12/04 00:23:32;;;;;;;23.45;9.50;;;1.90;99.90;;;;;;5007793;28;20054;-66
2020/12/04 00:26:01;;;;;;;23.80;9.20;;;1.90;99.90;;;;;;5005654;28;20087;-66
2020/12/04 00:28:27;;;;;;;20.63;8.52;;;1.90;99.90;;;;;;5007107;28;20066;-66
2020/12/04 00:30:54;;;;;;;25.48;10.38;;;1.80;99.90;;;;;;5007190;28;20050;-66
2020/12/04 00:33:21;;;;;;;27.67;9.77;;;1.90;99.90;;;;;;5006516;28;20088;-66
2020/12/04 00:35:47;;;;;;;23.95;8.93;;;1.80;99.90;;;;;;5005576;28;20048;-66
2020/12/04 00:38:14;;;;;;;22.02;9.35;;;1.80;99.90;;;;;;5010687;28;20044;-66
2020/12/04 00:40:41;;;;;;;28.90;9.40;;;1.70;99.90;;;;;;5016183;28;20054;-66
2020/12/04 00:43:08;;;;;;;27.33;9.65;;;1.70;99.90;;;;;;5012093;28;20487;-66
2020/12/04 00:45:34;;;;;;;24.95;9.48;;;1.80;99.90;;;;;;5009514;28;20520;-66
2020/12/04 00:48:01;;;;;;;23.10;9.15;;;1.80;99.90;;;;;;5004749;28;20077;-66
2020/12/04 00:50:29;;;;;;;24.90;8.70;;;1.80;99.90;;;;;;5006929;28;20119;-66
2020/12/04 00:52:58;;;;;;;28.58;9.40;;;1.80;99.90;;;;;;5009448;28;20040;-66
2020/12/04 00:55:25;;;;;;;20.52;8.60;;;1.80;99.90;;;;;;5009607;28;20097;-66
2020/12/04 00:57:52;;;;;;;19.95;8.38;;;1.80;99.90;;;;;;5011530;28;20377;-66
2020/12/04 01:00:18;;;;;;;25.73;9.07;;;1.80;99.90;;;;;;5013033;28;20458;-66
2020/12/04 01:02:45;;;;;;;22.45;7.95;;;1.80;99.90;;;;;;5007912;28;20455;-66
2020/12/04 01:05:11;;;;;;;28.90;9.82;;;1.80;99.90;;;;;;5039001;28;20042;-66
2020/12/04 01:07:38;;;;;;;24.75;8.85;;;1.80;99.90;;;;;;5010827;28;20519;-66
2020/12/04 01:10:06;;;;;;;25.75;9.13;;;1.80;99.90;;;;;;5010123;28;20075;-66
2020/12/04 01:12:32;;;;;;;26.38;8.82;;;1.80;99.90;;;;;;5006810;28;20054;-66
2020/12/04 01:14:59;;;;;;;23.45;8.75;;;1.80;99.90;;;;;;5002548;28;20050;-66
2020/12/04 01:17:27;;;;;;;27.45;8.90;;;1.90;99.90;;;;;;5010285;28;20034;-66
2020/12/04 01:19:54;;;;;;;26.77;8.10;;;1.90;99.90;;;;;;5011620;28;20385;-66
2020/12/04 01:22:20;;;;;;;22.77;8.82;;;1.90;99.90;;;;;;5008931;28;20069;-66
2020/12/04 01:24:47;;;;;;;26.75;9.48;;;1.90;99.90;;;;;;5009943;28;20562;-66
2020/12/04 01:27:14;;;;;;;22.65;7.60;;;1.90;99.90;;;;;;5021214;28;20117;-66
2020/12/04 01:29:40;;;;;;;27.23;9.27;;;1.90;99.90;;;;;;5013326;28;20117;-66
2020/12/04 01:32:07;;;;;;;25.60;9.13;;;1.80;99.90;;;;;;5006899;28;20046;-66
2020/12/04 01:34:33;;;;;;;27.45;9.13;;;1.80;99.90;;;;;;5012044;28;20116;-66
2020/12/04 01:37:00;;;;;;;21.85;8.48;;;1.80;99.90;;;;;;5010310;28;20038;-65
2020/12/04 01:39:26;;;;;;;28.63;8.48;;;1.80;99.90;;;;;;5008759;28;20042;-66
2020/12/04 01:41:53;;;;;;;21.73;8.38;;;1.80;99.90;;;;;;5035593;28;20514;-66
2020/12/04 01:44:19;;;;;;;24.58;7.40;;;1.80;99.90;;;;;;5009232;28;20069;-66
2020/12/04 01:46:51;;;;;;;20.83;8.65;;;1.80;99.90;;;;;;5010239;28;20046;-66
2020/12/04 01:49:18;;;;;;;18.92;7.40;;;1.80;99.90;;;;;;5005839;28;20404;-66
2020/12/04 01:51:47;;;;;;;19.60;7.50;;;1.80;99.90;;;;;;5011408;28;20058;-66
2020/12/04 01:54:16;;;;;;;25.10;8.13;;;1.90;99.90;;;;;;4999341;28;20060;-66
2020/12/04 01:56:43;;;;;;;24.05;8.68;;;1.90;99.90;;;;;;5004159;28;20054;-66
2020/12/04 01:59:09;;;;;;;21.30;7.65;;;1.90;99.90;;;;;;5017200;28;20048;-66
2020/12/04 02:01:40;;;;;;;23.17;8.65;;;1.90;99.90;;;;;;5004088;28;20042;-66
2020/12/04 02:04:09;;;;;;;19.55;8.43;;;2.00;99.90;;;;;;5011339;28;20099;-66
2020/12/04 02:06:57;;;;;;;24.15;8.55;;;2.00;99.90;;;;;;5009615;28;20050;-66
2020/12/04 02:09:30;;;;;;;21.58;8.68;;;2.00;99.90;;;;;;5002305;28;20036;-65
2020/12/04 02:12:00;;;;;;;21.98;9.00;;;2.00;99.90;;;;;;5007904;28;20042;-65
2020/12/04 02:14:28;;;;;;;25.88;9.38;;;1.90;99.90;;;;;;5009613;28;20069;-65
2020/12/04 02:17:06;;;;;;;21.95;8.38;;;1.90;99.90;;;;;;5033696;28;20135;-65
2020/12/04 02:19:37;;;;;;;25.20;7.95;;;1.90;99.90;;;;;;5009116;28;20404;-65
2020/12/04 02:22:04;;;;;;;21.92;7.80;;;1.90;99.90;;;;;;5009497;28;20516;-65
2020/12/04 02:24:31;;;;;;;23.42;8.60;;;1.90;99.90;;;;;;5010781;28;20037;-65
2020/12/04 02:26:58;;;;;;;23.88;8.80;;;1.90;99.90;;;;;;5014860;28;20049;-65
2020/12/04 02:29:25;;;;;;;21.17;7.57;;;1.80;99.90;;;;;;5011549;28;20053;-65
2020/12/04 02:31:52;;;;;;;24.50;8.32;;;1.80;99.90;;;;;;5009183;28;20049;-65
2020/12/04 02:34:19;;;;;;;23.13;9.20;;;1.90;99.90;;;;;;5011722;28;20041;-65
2020/12/04 02:36:47;;;;;;;25.73;9.35;;;1.90;99.90;;;;;;5007157;28;20497;-65
2020/12/04 02:39:14;;;;;;;22.17;8.32;;;1.90;99.90;;;;;;5014620;28;20100;-65
2020/12/04 02:41:45;;;;;;;23.70;8.48;;;2.00;99.90;;;;;;5002025;28;20792;-65
2020/12/04 02:44:12;;;;;;;22.42;9.35;;;2.00;99.90;;;;;;5003841;28;20043;-65
2020/12/04 02:46:39;;;;;;;21.88;8.85;;;2.00;99.90;;;;;;5006748;28;20037;-65
2020/12/04 02:49:05;;;;;;;24.40;9.07;;;2.00;99.90;;;;;;5015298;28;20050;-65
2020/12/04 02:51:32;;;;;;;20.33;8.70;;;2.10;99.90;;;;;;5005509;28;20052;-65
2020/12/04 02:53:58;;;;;;;26.17;9.30;;;2.10;99.90;;;;;;5005809;28;20414;-65
2020/12/04 02:56:25;;;;;;;25.50;9.00;;;2.10;99.90;;;;;;5010803;28;20038;-65
2020/12/04 02:58:52;;;;;;;21.42;9.38;;;2.10;99.90;;;;;;5000683;28;20050;-65
2020/12/04 03:01:18;;;;;;;25.83;9.27;;;2.10;99.90;;;;;;5010497;28;20068;-65
2020/12/04 03:03:45;;;;;;;22.95;8.95;;;2.10;99.90;;;;;;5010205;28;20068;-65
2020/12/04 03:06:11;;;;;;;21.27;8.15;;;2.20;99.90;;;;;;5002480;28;20034;-65
2020/12/04 03:08:38;;;;;;;25.00;8.80;;;2.10;99.90;;;;;;5008227;28;20073;-65
2020/12/04 03:11:05;;;;;;;21.70;7.82;;;2.10;99.90;;;;;;5006489;28;20051;-65
2020/12/04 03:13:32;;;;;;;23.10;9.10;;;2.10;99.90;;;;;;5011434;28;20041;-65
2020/12/04 03:15:59;;;;;;;26.48;9.63;;;2.10;99.90;;;;;;5012748;28;20463;-65
2020/12/04 03:18:25;;;;;;;23.17;8.30;;;2.10;99.90;;;;;;5016147;28;20450;-65
2020/12/04 03:20:52;;;;;;;20.05;7.75;;;2.10;99.90;;;;;;5009649;28;20501;-65
2020/12/04 03:23:19;;;;;;;23.30;9.65;;;2.10;99.90;;;;;;5042127;28;20045;-65
2020/12/04 03:25:46;;;;;;;23.80;9.30;;;2.10;99.90;;;;;;5005882;28;20046;-65
2020/12/04 03:28:12;;;;;;;27.92;9.32;;;2.10;99.90;;;;;;5004056;28;20493;-65
2020/12/04 03:30:39;;;;;;;23.83;8.90;;;2.20;99.90;;;;;;5042489;28;20141;-65
2020/12/04 03:33:06;;;;;;;22.33;8.15;;;2.20;99.90;;;;;;5019749;28;20046;-65
2020/12/04 03:35:33;;;;;;;22.73;8.07;;;2.20;99.90;;;;;;5008348;28;20053;-65
2020/12/04 03:37:59;;;;;;;21.00;8.18;;;2.20;99.90;;;;;;5008193;28;20525;-65
2020/12/04 03:40:26;;;;;;;23.17;9.38;;;2.30;99.90;;;;;;5037744;28;20519;-66
2020/12/04 03:42:52;;;;;;;22.98;8.95;;;2.30;99.90;;;;;;5008109;28;20654;-65
2020/12/04 03:45:19;;;;;;;20.92;8.70;;;2.30;99.90;;;;;;5010447;28;20136;-65
2020/12/04 03:47:45;;;;;;;20.98;8.70;;;2.30;99.90;;;;;;5008665;28;20034;-65
2020/12/04 03:50:12;;;;;;;20.92;9.10;;;2.30;99.90;;;;;;5031591;28;20048;-65
2020/12/04 03:52:39;;;;;;;25.30;8.93;;;2.40;99.90;;;;;;5007226;28;20042;-65
2020/12/04 03:55:06;;;;;;;20.85;7.85;;;2.40;99.90;;;;;;5020507;28;20042;-66
2020/12/04 03:57:32;;;;;;;22.35;8.50;;;2.50;99.90;;;;;;5039368;28;20481;-66
2020/12/04 03:59:59;;;;;;;22.52;8.38;;;2.50;99.90;;;;;;5011013;28;20050;-66
2020/12/04 04:02:25;;;;;;;24.88;9.85;;;2.50;99.90;;;;;;5009914;28;20049;-66
2020/12/04 04:04:52;;;;;;;24.70;9.43;;;2.60;99.90;;;;;;5004546;28;20073;-66
2020/12/04 04:07:19;;;;;;;22.02;7.85;;;2.50;99.90;;;;;;5002569;28;20475;-65
2020/12/04 04:09:46;;;;;;;23.10;9.20;;;2.50;99.90;;;;;;5009143;28;20038;-66
2020/12/04 04:12:12;;;;;;;24.63;8.98;;;2.60;99.90;;;;;;5012131;28;20053;-66
2020/12/04 04:14:39;;;;;;;24.70;8.98;;;2.60;99.90;;;;;;4996144;28;20030;-65
2020/12/04 04:17:06;;;;;;;21.98;8.40;;;2.60;99.90;;;;;;5019431;28;20075;-65
2020/12/04 04:19:33;;;;;;;24.05;8.85;;;2.60;99.90;;;;;;5036919;28;20145;-65
2020/12/04 04:21:59;;;;;;;24.00;9.45;;;2.60;99.90;;;;;;5033341;28;20077;-65
2020/12/04 04:24:26;;;;;;;23.85;8.48;;;2.60;99.90;;;;;;5004202;28;20045;-65
2020/12/04 04:26:53;;;;;;;22.52;8.68;;;2.70;99.90;;;;;;5005217;28;20043;-65
2020/12/04 04:29:19;;;;;;;23.42;8.80;;;2.70;99.90;;;;;;5010430;28;20042;-65
2020/12/04 04:31:52;;;;;;;23.58;8.68;;;2.70;99.90;;;;;;5005291;28;20080;-65
2020/12/04 04:34:20;;;;;;;23.63;8.82;;;2.60;99.90;;;;;;5011959;28;20381;-65
2020/12/04 04:36:47;;;;;;;23.55;9.18;;;2.70;99.90;;;;;;5009035;28;20038;-65
2020/12/04 04:39:14;;;;;;;25.75;8.48;;;2.70;99.90;;;;;;5008929;28;20463;-66
2020/12/04 04:41:40;;;;;;;25.52;9.52;;;2.70;99.90;;;;;;5009990;28;20515;-66
2020/12/04 04:44:11;;;;;;;22.25;8.48;;;2.70;99.90;;;;;;5007213;28;20046;-66
2020/12/04 04:46:43;;;;;;;21.83;8.90;;;2.80;99.90;;;;;;5003403;28;20046;-65
2020/12/04 04:49:26;;;;;;;25.65;8.23;;;2.80;99.90;;;;;;5005570;28;20037;-65
2020/12/04 04:51:55;;;;;;;;;;;2.80;99.90;;;;;;5009755;28;20046;-65
2020/12/04 04:54:26;;;;;;;23.95;8.05;;;2.70;99.90;;;;;;5009639;28;19927;-66
2020/12/04 04:56:53;;;;;;;21.42;8.77;;;2.70;99.90;;;;;;5005171;28;20543;-66
2020/12/04 04:59:20;;;;;;;24.55;9.88;;;2.70;99.90;;;;;;5008706;28;20038;-65
2020/12/04 05:01:48;;;;;;;24.83;8.27;;;2.70;99.90;;;;;;4997139;28;20051;-65
2020/12/04 05:04:16;;;;;;;23.80;8.40;;;2.70;99.90;;;;;;5008643;28;20148;-65
2020/12/04 05:06:43;;;;;;;23.92;8.65;;;2.70;99.90;;;;;;5010489;28;20052;-65
2020/12/04 05:09:16;;;;;;;20.00;9.05;;;2.70;99.90;;;;;;5011486;28;20492;-65
2020/12/04 05:11:57;;;;;;;18.40;8.70;;;2.70;99.90;;;;;;5009518;28;20061;-65
2020/12/04 05:14:24;;;;;;;22.85;8.52;;;2.70;99.90;;;;;;5010471;28;20053;-66
2020/12/04 05:16:58;;;;;;;23.77;8.70;;;2.60;99.90;;;;;;5009696;28;20042;-66
2020/12/04 05:19:30;;;;;;;21.83;8.68;;;2.70;99.90;;;;;;5009040;28;20049;-66
2020/12/04 05:22:06;;;;;;;24.23;9.18;;;2.70;99.90;;;;;;5002782;28;20053;-65
2020/12/04 05:24:33;;;;;;;23.98;8.00;;;2.70;99.90;;;;;;5010947;28;20472;-65
2020/12/04 05:27:00;;;;;;;22.30;9.15;;;2.70;99.90;;;;;;5011361;28;20522;-65
2020/12/04 05:29:37;;;;;;;25.10;8.50;;;2.70;99.90;;;;;;5009956;28;20042;-65
2020/12/04 05:32:16;;;;;;;24.45;8.88;;;2.60;99.90;;;;;;5010995;28;20050;-65
2020/12/04 05:34:43;;;;;;;20.95;8.32;;;2.60;99.90;;;;;;5005546;28;20428;-65
2020/12/04 05:37:13;;;;;;;22.55;9.38;;;2.60;99.90;;;;;;5010249;28;20687;-65
2020/12/04 05:39:49;;;;;;;24.08;8.32;;;2.60;99.90;;;;;;5011651;28;20508;-64
2020/12/04 05:42:35;;;;;;;21.23;9.63;;;2.60;99.90;;;;;;5010214;28;20041;-65
2020/12/04 05:45:04;;;;;;;19.27;7.50;;;2.70;99.90;;;;;;5012148;28;20054;-65
2020/12/04 05:47:43;;;;;;;19.10;8.35;;;2.60;99.90;;;;;;5009209;28;20097;-65
2020/12/04 05:50:13;;;;;;;24.25;9.77;;;2.70;99.90;;;;;;5021994;28;20037;-64
2020/12/04 05:52:39;;;;;;;23.13;9.50;;;2.60;99.90;;;;;;5012422;28;20436;-64
2020/12/04 05:55:09;;;;;;;18.60;7.57;;;2.60;99.90;;;;;;5018327;28;20049;-64
2020/12/04 05:57:47;;;;;;;22.85;7.60;;;2.60;99.90;;;;;;5003164;28;20509;-65
2020/12/04 06:00:15;;;;;;;19.48;8.25;;;2.60;99.90;;;;;;5007871;28;20117;-65
2020/12/04 06:02:42;;;;;;;22.95;8.85;;;2.70;99.90;;;;;;5014655;28;20044;-65
2020/12/04 06:05:10;;;;;;;23.38;8.45;;;2.70;99.90;;;;;;5013636;28;20485;-65
2020/12/04 06:07:38;;;;;;;24.10;8.73;;;2.70;99.90;;;;;;5009743;28;20521;-65
2020/12/04 06:10:06;;;;;;;23.33;8.43;;;2.70;99.90;;;;;;5018195;28;20057;-65
2020/12/04 06:12:33;;;;;;;21.33;8.82;;;2.70;99.90;;;;;;5001302;28;20050;-65
2020/12/04 06:15:26;;;;;;;24.83;8.98;;;2.70;99.90;;;;;;5024925;28;20034;-65
2020/12/04 06:18:02;;;;;;;20.98;8.23;;;2.70;99.90;;;;;;5013622;28;20058;-65
2020/12/04 06:20:29;;;;;;;26.05;10.25;;;2.70;99.90;;;;;;5007641;28;20046;-65
2020/12/04 06:23:04;;;;;;;23.63;8.25;;;2.70;99.90;;;;;;5008665;28;20033;-65
2020/12/04 06:25:55;;;;;;;23.85;8.45;;;2.70;99.90;;;;;;5004173;28;20541;-65
2020/12/04 06:28:33;;;;;;;25.25;10.30;;;2.70;99.90;;;;;;5034166;28;20377;-65
2020/12/04 06:31:07;;;;;;;25.60;10.20;;;2.80;99.90;;;;;;5004866;28;20122;-65
2020/12/04 06:33:36;;;;;;;23.38;9.32;;;2.80;99.90;;;;;;5032255;28;20600;-65
2020/12/04 06:36:04;;;;;;;24.45;9.10;;;2.80;99.90;;;;;;5010021;28;20050;-65
2020/12/04 06:38:36;;;;;;;26.63;9.68;;;2.80;99.90;;;;;;5007948;28;20456;-65
2020/12/04 06:41:21;;;;;;;26.13;9.27;;;2.80;99.90;;;;;;4998466;28;20049;-65
2020/12/04 06:43:49;;;;;;;26.20;9.05;;;2.90;99.90;;;;;;5033212;28;20045;-65
2020/12/04 06:46:40;;;;;;;22.23;9.77;;;2.90;99.90;;;;;;5008375;28;20038;-65
2020/12/04 06:52:04;;;;;;;22.48;8.38;;;3.00;99.90;;;;;;4963979;28;20047;-65
2020/12/04 06:54:33;;;;;;;27.02;9.40;;;3.00;99.90;;;;;;4990654;28;20476;-65
2020/12/04 06:57:00;;;;;;;26.30;9.52;;;3.10;99.90;;;;;;4963337;28;20525;-65
2020/12/04 06:59:29;;;;;;;26.67;8.75;;;3.10;99.90;;;;;;4959075;28;20039;-65
2020/12/04 07:02:05;;;;;;;21.95;8.15;;;3.10;99.90;;;;;;4973214;28;20041;-65
2020/12/04 07:04:34;;;;;;;21.23;8.23;;;3.10;99.90;;;;;;4961121;28;20124;-64
2020/12/04 07:07:09;;;;;;;20.35;9.73;;;3.20;99.90;;;;;;4960917;28;20469;-64
2020/12/04 07:09:37;;;;;;;22.27;8.95;;;3.30;99.90;;;;;;4978416;28;20049;-64
2020/12/04 07:12:04;;;;;;;23.45;9.45;;;3.40;99.90;;;;;;4968907;28;20034;-64
2020/12/04 07:14:31;;;;;;;20.48;8.52;;;3.50;99.90;;;;;;4975282;28;20474;-64
2020/12/04 07:16:58;;;;;;;23.25;8.50;;;3.50;99.90;;;;;;4963419;28;20806;-64
2020/12/04 07:19:26;;;;;;;23.58;9.25;;;3.60;99.90;;;;;;4958238;28;20066;-64
2020/12/04 07:21:53;;;;;;;24.40;9.30;;;3.70;99.90;;;;;;4954546;28;20075;-64
2020/12/04 07:24:20;;;;;;;22.85;9.25;;;3.70;99.90;;;;;;4956208;28;20043;-64
2020/12/04 07:27:00;;;;;;;24.42;9.52;;;3.70;99.90;;;;;;4971801;28;20050;-64
2020/12/04 07:29:26;;;;;;;20.35;9.20;;;3.80;99.90;;;;;;4963871;28;20045;-64
2020/12/04 07:31:54;;;;;;;25.02;9.23;;;3.80;99.90;;;;;;4968303;28;20097;-64
2020/12/04 07:34:25;;;;;;;24.08;8.77;;;3.90;99.90;;;;;;4965014;28;20049;-64
2020/12/04 07:36:55;;;;;;;19.42;7.70;;;3.90;99.90;;;;;;4970979;28;20530;-64
2020/12/04 07:39:27;;;;;;;23.98;8.95;;;4.00;99.90;;;;;;4957278;28;20053;-64
2020/12/04 07:41:56;;;;;;;23.00;8.48;;;4.00;99.90;;;;;;4962461;28;20050;-64
2020/12/04 07:44:37;;;;;;;20.50;8.05;;;4.10;99.90;;;;;;4952030;28;20047;-64
2020/12/04 07:47:16;;;;;;;21.30;9.02;;;4.10;99.90;;;;;;4962254;28;20549;-64
2020/12/04 07:49:45;;;;;;;21.85;8.77;;;4.10;99.90;;;;;;4976770;28;20532;-64
2020/12/04 07:52:20;;;;;;;25.10;8.93;;;4.10;99.90;;;;;;4964011;28;20717;-64
2020/12/04 07:55:05;;;;;;;24.02;8.95;;;4.10;99.90;;;;;;4967307;28;20462;-64
2020/12/04 07:57:56;;;;;;;21.13;8.55;;;4.20;99.90;;;;;;4985955;28;20050;-64
2020/12/04 08:00:23;;;;;;;23.13;8.38;;;4.20;99.90;;;;;;4955752;28;20038;-64
2020/12/04 08:02:49;;;;;;;21.10;8.13;;;4.20;99.90;;;;;;4962705;28;20058;-63
2020/12/04 08:05:20;;;;;;;18.73;8.13;;;4.20;99.90;;;;;;4953075;28;20049;-63
2020/12/04 08:07:52;;;;;;;23.75;8.45;;;4.20;99.90;;;;;;4959624;28;20401;-64
2020/12/04 08:10:20;;;;;;;26.92;9.43;;;4.30;99.90;;;;;;4962474;28;20049;-64
2020/12/04 08:12:49;;;;;;;22.75;8.30;;;4.30;99.90;;;;;;4994141;28;20117;-64
2020/12/04 08:15:21;;;;;;;19.58;7.90;;;4.30;99.90;;;;;;4959704;28;20045;-63
2020/12/04 08:17:47;;;;;;;24.17;8.32;;;4.30;99.90;;;;;;4963790;28;20041;-64
2020/12/04 08:20:16;;;;;;;20.35;9.07;;;4.40;99.90;;;;;;4968006;28;20051;-64
2020/12/04 08:22:48;;;;;;;21.17;8.82;;;4.40;99.90;;;;;;4962830;28;20050;-65
2020/12/04 08:25:26;;;;;;;26.88;8.32;;;4.50;99.90;;;;;;4963292;28;20125;-64
2020/12/04 08:27:53;;;;;;;25.17;9.88;;;4.50;99.90;;;;;;4961467;28;20047;-64
2020/12/04 08:30:25;;;;;;;18.35;8.15;;;4.60;99.90;;;;;;4980714;28;20046;-64
2020/12/04 08:32:54;;;;;;;17.23;7.32;;;4.70;99.90;;;;;;4983314;28;20106;-64
2020/12/04 08:35:24;;;;;;;22.70;8.10;;;4.70;99.90;;;;;;4979421;28;20525;-64
2020/12/04 08:37:52;;;;;;;19.35;7.68;;;4.80;99.90;;;;;;4961415;28;20046;-63
2020/12/04 08:40:26;;;;;;;16.95;6.85;;;4.80;99.90;;;;;;4962122;28;20050;-64
2020/12/04 08:42:54;;;;;;;17.65;6.72;;;4.90;99.90;;;;;;4958828;28;20047;-64
2020/12/04 08:45:27;;;;;;;17.88;6.63;;;4.90;99.90;;;;;;4974994;28;20146;-64
2020/12/04 08:48:04;;;;;;;17.08;6.40;;;5.00;99.90;;;;;;4977555;28;20046;-64
2020/12/04 08:50:31;;;;;;;16.95;6.03;;;5.00;99.90;;;;;;4968417;28;20140;-63
2020/12/04 08:52:58;;;;;;;14.65;6.03;;;5.00;99.90;;;;;;4957342;28;20371;-63
2020/12/04 08:55:26;;;;;;;21.50;6.22;;;5.20;99.90;;;;;;4966708;28;20402;-63
2020/12/04 08:57:56;;;;;;;16.48;6.13;;;5.20;99.90;;;;;;4976671;28;20055;-63
2020/12/04 09:00:33;;;;;;;18.95;6.45;;;5.30;99.90;;;;;;4971633;28;20446;-64
2020/12/04 09:03:00;;;;;;;19.73;6.53;;;5.40;99.90;;;;;;4971016;28;20042;-63
2020/12/04 09:05:27;;;;;;;21.17;6.85;;;5.40;99.90;;;;;;4983476;28;20046;-63
2020/12/04 09:07:53;;;;;;;17.45;6.05;;;5.50;99.90;;;;;;4988867;28;20418;-63
2020/12/04 09:10:20;;;;;;;14.65;6.78;;;5.50;99.90;;;;;;4984998;28;20043;-63
2020/12/04 09:12:48;;;;;;;17.98;6.47;;;5.50;99.90;;;;;;4973941;28;20043;-64
2020/12/04 09:15:16;;;;;;;18.83;6.35;;;5.60;99.90;;;;;;4986868;28;20914;-63
2020/12/04 09:17:43;;;;;;;19.25;6.45;;;5.60;99.90;;;;;;4972179;28;20058;-64
2020/12/04 09:20:11;;;;;;;22.45;7.13;;;5.60;99.90;;;;;;4977031;28;20405;-64
2020/12/04 09:22:39;;;;;;;19.55;7.35;;;5.70;99.90;;;;;;4958955;28;20054;-64
2020/12/04 09:25:13;;;;;;;19.27;7.10;;;5.70;99.90;;;;;;4962016;28;20093;-64
2020/12/04 09:27:41;;;;;;;20.48;6.80;;;5.60;99.90;;;;;;4964243;28;20046;-64
2020/12/04 09:30:09;;;;;;;21.27;7.40;;;5.60;99.90;;;;;;4984893;28;20049;-64
2020/12/04 09:32:37;;;;;;;17.95;6.35;;;5.60;99.90;;;;;;4987209;28;20050;-65
2020/12/04 09:35:05;;;;;;;18.92;6.75;;;5.70;99.90;;;;;;4978996;28;20042;-66
2020/12/04 09:37:33;;;;;;;18.23;6.05;;;5.60;99.90;;;;;;4976369;28;20047;-63
2020/12/04 09:40:12;;;;;;;19.17;6.53;;;5.70;99.90;;;;;;4977348;28;20426;-63
2020/12/04 09:42:40;;;;;;;19.83;6.88;;;5.70;99.90;;;;;;4975462;28;20462;-63
2020/12/04 09:45:08;;;;;;;17.33;6.88;;;5.70;99.90;;;;;;4963432;28;20095;-63
2020/12/04 09:47:36;;;;;;;16.98;6.78;;;5.80;99.90;;;;;;4970921;28;20043;-63
2020/12/04 09:50:10;;;;;;;19.60;7.47;;;5.80;99.90;;;;;;4967368;28;20043;-63
2020/12/04 09:52:40;;;;;;;17.45;6.75;;;5.80;99.90;;;;;;4957591;28;20071;-63
2020/12/04 09:55:10;;;;;;;17.85;6.88;;;5.80;99.90;;;;;;4966339;28;20043;-64
2020/12/04 09:57:41;;;;;;;16.75;6.13;;;5.80;99.90;;;;;;4951853;28;20106;-64
2020/12/04 10:00:09;;;;;;;19.45;6.45;;;5.80;99.90;;;;;;4971296;28;20525;-64
2020/12/04 10:02:36;;;;;;;18.52;6.55;;;5.80;99.90;;;;;;4973064;28;20050;-64
2020/12/04 10:05:03;;;;;;;21.52;6.15;;;5.90;99.90;;;;;;4965886;28;20506;-64
2020/12/04 10:07:31;;;;;;;15.95;5.82;;;5.90;99.90;;;;;;4969162;28;20071;-64
2020/12/04 10:09:57;;;;;;;19.63;6.65;;;5.90;99.90;;;;;;4984278;28;20046;-64
2020/12/04 10:12:24;;;;;;;14.75;5.43;;;5.90;99.90;;;;;;4965786;28;20043;-64
2020/12/04 10:14:51;;;;;;;19.70;6.28;;;5.90;99.90;;;;;;4968340;28;20039;-64
2020/12/04 10:17:17;;;;;;;15.30;5.55;;;5.90;99.90;;;;;;4962337;28;20368;-64
2020/12/04 10:19:44;;;;;;;14.57;5.65;;;5.90;99.90;;;;;;4974217;28;20062;-64
2020/12/04 10:22:11;;;;;;;16.58;5.90;;;5.90;99.90;;;;;;4968309;28;20509;-64
2020/12/04 10:24:38;;;;;;;17.70;5.72;;;5.90;99.90;;;;;;4974663;28;20458;-64
2020/12/04 10:27:04;;;;;;;16.50;6.72;;;6.00;99.90;;;;;;4968015;28;20050;-65
2020/12/04 10:29:31;;;;;;;19.58;6.10;;;6.10;99.90;;;;;;4984040;28;20494;-65
2020/12/04 10:31:58;;;;;;;19.08;6.13;;;6.10;99.90;;;;;;4969404;28;20130;-65
2020/12/04 10:34:26;;;;;;;17.38;6.03;;;6.20;99.90;;;;;;4975179;28;20041;-65
2020/12/04 10:36:53;;;;;;;17.77;6.30;;;6.30;99.90;;;;;;4961249;28;20130;-65
2020/12/04 10:39:20;;;;;;;16.52;5.63;;;6.30;99.90;;;;;;4974375;28;20146;-65
2020/12/04 10:41:46;;;;;;;14.45;5.57;;;6.30;99.90;;;;;;4962308;28;20053;-65
2020/12/04 10:44:13;;;;;;;15.43;6.20;;;6.30;99.90;;;;;;4977528;28;20517;-65
2020/12/04 10:46:40;;;;;;;16.50;5.13;;;6.40;99.90;;;;;;4960592;28;20047;-65
2020/12/04 10:49:07;;;;;;;14.15;6.35;;;6.40;99.90;;;;;;4966001;28;21927;-65
2020/12/04 10:51:35;;;;;;;14.50;5.57;;;6.40;99.90;;;;;;4968748;28;20051;-65
2020/12/04 10:54:04;;;;;;;19.60;7.03;;;6.30;99.90;;;;;;4977109;28;20379;-63
2020/12/04 10:56:31;;;;;;;17.33;6.50;;;6.30;99.90;;;;;;4990306;28;20085;-65
2020/12/04 10:58:58;;;;;;;16.63;6.25;;;6.30;99.90;;;;;;4975240;28;20057;-65
2020/12/04 11:06:19;;;;;;;16.58;5.60;;;6.40;99.90;;;;;;4976679;28;20411;-64
2020/12/04 11:08:49;;;;;;;15.07;5.53;;;6.40;99.90;;;;;;4953772;28;20043;-65
2020/12/04 11:11:17;;;;;;;19.20;6.90;;;6.50;99.90;;;;;;4986112;28;20039;-64
2020/12/04 11:13:49;;;;;;;18.50;6.57;;;6.50;99.90;;;;;;4963322;28;20173;-64
2020/12/04 11:16:16;;;;;;;17.98;6.28;;;6.50;99.90;;;;;;4972314;28;20042;-64
2020/12/04 11:18:42;;;;;;;14.88;5.90;;;6.60;99.90;;;;;;4960689;28;20054;-64
2020/12/04 11:21:09;;;;;;;17.58;6.97;;;6.70;99.90;;;;;;4971158;28;20512;-63
2020/12/04 11:23:36;;;;;;;15.25;6.03;;;6.70;99.90;;;;;;4965717;28;20047;-64
2020/12/04 11:26:03;;;;;;;18.23;6.43;;;6.80;99.90;;;;;;4965879;28;20039;-63
2020/12/04 11:28:33;;;;;;;18.00;7.35;;;6.80;99.90;;;;;;4968793;28;20047;-63
2020/12/04 11:31:00;;;;;;;18.30;6.65;;;6.90;99.90;;;;;;4969821;28;20035;-63
2020/12/04 11:33:28;;;;;;;19.27;7.40;;;6.90;99.90;;;;;;4977130;28;20045;-63
2020/12/04 11:35:55;;;;;;;20.80;7.55;;;6.90;99.90;;;;;;4965209;28;20054;-63
2020/12/04 11:38:22;;;;;;;17.83;6.95;;;7.00;99.90;;;;;;4965242;28;20050;-63
2020/12/04 11:40:49;;;;;;;17.63;6.88;;;7.10;99.90;;;;;;4969675;28;20047;-63
2020/12/04 11:43:15;;;;;;;17.83;6.55;;;7.10;99.90;;;;;;4978024;28;20058;-63
2020/12/04 11:45:42;;;;;;;18.55;6.88;;;7.10;99.90;;;;;;4970588;28;20089;-64
2020/12/04 11:48:09;;;;;;;17.08;6.63;;;7.20;99.90;;;;;;4964444;28;20139;-64
2020/12/04 11:50:36;;;;;;;18.50;6.63;;;7.20;99.90;;;;;;4977457;28;20047;-63
2020/12/04 11:53:04;;;;;;;17.10;7.35;;;7.20;99.90;;;;;;4979498;28;20043;-63
2020/12/04 11:55:31;;;;;;;15.35;7.07;;;7.20;99.90;;;;;;4969662;28;20052;-63
2020/12/04 11:57:58;;;;;;;17.00;7.32;;;7.20;99.90;;;;;;4977412;28;20050;-63
2020/12/04 12:00:24;;;;;;;17.13;7.22;;;7.30;99.90;;;;;;4967530;28;20126;-63
2020/12/04 12:02:52;;;;;;;18.70;7.22;;;7.30;99.90;;;;;;4964430;28;20458;-63
2020/12/04 12:05:18;;;;;;;17.80;7.40;;;7.40;99.90;;;;;;4965022;28;20043;-64
2020/12/04 12:07:46;;;;;;;18.50;7.30;;;7.50;99.90;;;;;;4960111;28;20045;-63
2020/12/04 12:10:12;;;;;;;17.90;7.15;;;7.50;99.90;;;;;;4962414;28;20105;-64
2020/12/04 12:12:39;;;;;;;20.85;6.82;;;7.60;99.90;;;;;;4968158;28;20035;-63
2020/12/04 12:15:06;;;;;;;19.10;7.47;;;7.60;99.90;;;;;;4977473;28;20043;-63
2020/12/04 12:17:32;;;;;;;20.20;7.13;;;7.70;99.90;;;;;;4985168;28;20059;-62
2020/12/04 12:19:59;;;;;;;16.42;6.72;;;7.80;99.90;;;;;;4981239;28;20575;-63
2020/12/04 12:22:26;;;;;;;17.92;7.45;;;7.80;99.90;;;;;;4972024;28;20047;-64
2020/12/04 12:24:52;;;;;;;17.55;7.72;;;7.80;99.90;;;;;;4965400;28;20101;-64
2020/12/04 12:27:19;;;;;;;18.10;7.72;;;7.80;99.90;;;;;;4968912;28;20061;-63
2020/12/04 12:29:45;;;;;;;20.33;8.10;;;7.80;99.90;;;;;;4965497;28;20042;-63
2020/12/04 12:32:12;;;;;;;18.42;7.85;;;7.80;99.90;;;;;;4968790;28;20050;-63
2020/12/04 12:37:24;;;;;;;17.65;6.93;;;7.70;99.90;;;;;;4994273;28;20104;-63
2020/12/04 12:39:51;;;;;;;19.60;7.97;;;7.60;99.90;;;;;;4969143;28;20409;-63
2020/12/04 12:42:18;;;;;;;19.95;7.53;;;7.70;99.90;;;;;;4990491;28;20406;-63
2020/12/04 12:44:46;;;;;;;18.60;7.88;;;7.60;99.90;;;;;;4996431;28;20050;-63
2020/12/04 12:47:14;;;;;;;20.90;7.90;;;7.60;99.90;;;;;;4965000;28;20081;-64
2020/12/04 12:49:41;;;;;;;15.35;6.63;;;7.60;99.90;;;;;;4972418;28;20509;-63
2020/12/04 12:52:08;;;;;;;15.73;7.03;;;7.70;99.90;;;;;;4970245;28;20058;-63
2020/12/04 12:54:36;;;;;;;13.98;5.20;;;7.70;99.90;;;;;;4977242;28;20058;-63
2020/12/04 12:57:03;;;;;;;12.13;4.97;;;7.80;99.90;;;;;;4973776;28;20055;-63
2020/12/04 12:59:30;;;;;;;12.38;3.97;;;7.90;99.90;;;;;;4981988;28;20068;-63
2020/12/04 13:01:58;;;;;;;8.75;4.55;;;7.90;99.90;;;;;;4988882;28;20047;-64
2020/12/04 13:04:25;;;;;;;11.85;3.90;;;8.00;99.90;;;;;;4966279;28;20117;-63
2020/12/04 13:06:53;;;;;;;12.05;4.93;;;8.00;99.90;;;;;;4969205;28;20042;-63